sensor_id;sensor_type;location;lat;lon;timestamp;temperature;humidity
39751;DHT22;37579;51.074;17.004;2023-04-09T00:01:11;23.30;47.30
39751;DHT22;37579;51.074;17.004;2023-04-09T00:03:37;23.30;47.30
39751;DHT22;37579;51.074;17.004;2023-04-09T00:06:04;23.30;47.20
39751;DHT22;37579;51.074;17.004;2023-04-09T00:08:29;23.30;47.20
39751;DHT22;37579;51.074;17.004;2023-04-09T00:10:58;23.30;47.20
39751;DHT22;37579;51.074;17.004;2023-04-09T00:13:25;23.30;47.30
39751;DHT22;37579;51.074;17.004;2023-04-09T00:15:51;23.30;47.30
39751;DHT22;37579;51.074;17.004;2023-04-09T00:18:16;23.30;47.20
39751;DHT22;37579;51.074;17.004;2023-04-09T00:20:43;23.30;47.30
39751;DHT22;37579;51.074;17.004;2023-04-09T00:23:08;23.30;47.20
39751;DHT22;37579;51.074;17.004;2023-04-09T00:25:34;23.30;47.20
39751;DHT22;37579;51.074;17.004;2023-04-09T00:28:00;23.30;47.20
39751;DHT22;37579;51.074;17.004;2023-04-09T00:30:30;23.30;47.20
39751;DHT22;37579;51.074;17.004;2023-04-09T00:32:56;23.30;47.20
39751;DHT22;37579;51.074;17.004;2023-04-09T00:35:22;23.30;47.30
39751;DHT22;37579;51.074;17.004;2023-04-09T00:37:48;23.30;47.30
39751;DHT22;37579;51.074;17.004;2023-04-09T00:40:15;23.30;47.30
39751;DHT22;37579;51.074;17.004;2023-04-09T00:42:41;23.20;47.80
39751;DHT22;37579;51.074;17.004;2023-04-09T00:45:07;23.20;47.30
39751;DHT22;37579;51.074;17.004;2023-04-09T00:47:34;23.20;47.30
39751;DHT22;37579;51.074;17.004;2023-04-09T00:50:00;23.20;47.40
39751;DHT22;37579;51.074;17.004;2023-04-09T00:52:27;23.10;47.40
39751;DHT22;37579;51.074;17.004;2023-04-09T00:54:56;23.10;47.40
39751;DHT22;37579;51.074;17.004;2023-04-09T00:57:23;23.10;47.50
39751;DHT22;37579;51.074;17.004;2023-04-09T00:59:49;23.10;47.50
39751;DHT22;37579;51.074;17.004;2023-04-09T01:02:15;23.10;47.50
39751;DHT22;37579;51.074;17.004;2023-04-09T01:04:42;23.10;47.60
39751;DHT22;37579;51.074;17.004;2023-04-09T01:09:53;23.10;47.50
39751;DHT22;37579;51.074;17.004;2023-04-09T01:14:56;23.10;47.50
39751;DHT22;37579;51.074;17.004;2023-04-09T01:17:25;23.10;47.50
39751;DHT22;37579;51.074;17.004;2023-04-09T01:20:08;23.00;47.50
39751;DHT22;37579;51.074;17.004;2023-04-09T01:28:52;23.10;47.50
39751;DHT22;37579;51.074;17.004;2023-04-09T01:31:25;23.10;47.50
39751;DHT22;37579;51.074;17.004;2023-04-09T01:33:53;23.00;47.50
39751;DHT22;37579;51.074;17.004;2023-04-09T01:36:20;23.00;47.50
39751;DHT22;37579;51.074;17.004;2023-04-09T01:38:47;23.00;47.60
39751;DHT22;37579;51.074;17.004;2023-04-09T01:41:16;23.00;47.60
39751;DHT22;37579;51.074;17.004;2023-04-09T01:43:43;23.00;47.60
39751;DHT22;37579;51.074;17.004;2023-04-09T01:46:10;23.00;47.60
39751;DHT22;37579;51.074;17.004;2023-04-09T01:48:37;23.00;47.60
39751;DHT22;37579;51.074;17.004;2023-04-09T01:51:03;23.00;47.60
39751;DHT22;37579;51.074;17.004;2023-04-09T01:53:29;23.00;47.60
39751;DHT22;37579;51.074;17.004;2023-04-09T01:55:58;23.00;47.50
39751;DHT22;37579;51.074;17.004;2023-04-09T01:58:25;23.00;47.50
39751;DHT22;37579;51.074;17.004;2023-04-09T02:00:58;23.00;47.50
39751;DHT22;37579;51.074;17.004;2023-04-09T02:03:50;23.00;47.50
39751;DHT22;37579;51.074;17.004;2023-04-09T02:06:41;23.00;47.40
39751;DHT22;37579;51.074;17.004;2023-04-09T02:09:09;23.00;47.50
39751;DHT22;37579;51.074;17.004;2023-04-09T02:11:39;23.00;47.50
39751;DHT22;37579;51.074;17.004;2023-04-09T02:14:06;23.00;47.40
39751;DHT22;37579;51.074;17.004;2023-04-09T02:16:33;23.00;47.50
39751;DHT22;37579;51.074;17.004;2023-04-09T02:19:00;23.00;47.60
39751;DHT22;37579;51.074;17.004;2023-04-09T02:21:27;23.00;47.40
39751;DHT22;37579;51.074;17.004;2023-04-09T02:23:54;23.00;47.50
39751;DHT22;37579;51.074;17.004;2023-04-09T02:26:21;23.00;47.50
39751;DHT22;37579;51.074;17.004;2023-04-09T02:28:47;23.00;47.50
39751;DHT22;37579;51.074;17.004;2023-04-09T02:31:13;23.00;47.50
39751;DHT22;37579;51.074;17.004;2023-04-09T02:33:39;23.00;47.50
39751;DHT22;37579;51.074;17.004;2023-04-09T02:36:05;23.00;47.50
39751;DHT22;37579;51.074;17.004;2023-04-09T02:38:31;23.00;47.40
39751;DHT22;37579;51.074;17.004;2023-04-09T02:40:57;23.00;47.40
39751;DHT22;37579;51.074;17.004;2023-04-09T02:43:23;23.00;47.40
39751;DHT22;37579;51.074;17.004;2023-04-09T02:45:49;23.00;47.50
39751;DHT22;37579;51.074;17.004;2023-04-09T02:48:15;23.00;47.50
39751;DHT22;37579;51.074;17.004;2023-04-09T02:50:43;22.90;47.40
39751;DHT22;37579;51.074;17.004;2023-04-09T02:53:09;23.00;47.50
39751;DHT22;37579;51.074;17.004;2023-04-09T02:55:35;22.90;47.40
39751;DHT22;37579;51.074;17.004;2023-04-09T02:58:00;22.90;47.50
39751;DHT22;37579;51.074;17.004;2023-04-09T03:00:26;22.90;47.50
39751;DHT22;37579;51.074;17.004;2023-04-09T03:02:53;22.90;47.40
39751;DHT22;37579;51.074;17.004;2023-04-09T03:05:19;22.90;47.50
39751;DHT22;37579;51.074;17.004;2023-04-09T03:07:45;22.90;47.60
39751;DHT22;37579;51.074;17.004;2023-04-09T03:10:11;22.90;47.50
39751;DHT22;37579;51.074;17.004;2023-04-09T03:12:37;22.90;47.50
39751;DHT22;37579;51.074;17.004;2023-04-09T03:15:04;22.90;47.50
39751;DHT22;37579;51.074;17.004;2023-04-09T03:17:30;22.90;47.60
39751;DHT22;37579;51.074;17.004;2023-04-09T03:19:56;22.90;47.60
39751;DHT22;37579;51.074;17.004;2023-04-09T03:22:22;22.90;47.60
39751;DHT22;37579;51.074;17.004;2023-04-09T03:24:51;22.80;47.70
39751;DHT22;37579;51.074;17.004;2023-04-09T03:27:17;22.80;47.70
39751;DHT22;37579;51.074;17.004;2023-04-09T03:29:44;22.80;47.60
39751;DHT22;37579;51.074;17.004;2023-04-09T03:32:10;22.80;47.60
39751;DHT22;37579;51.074;17.004;2023-04-09T03:34:36;22.80;47.60
39751;DHT22;37579;51.074;17.004;2023-04-09T03:37:02;22.80;47.60
39751;DHT22;37579;51.074;17.004;2023-04-09T03:39:30;22.80;47.60
39751;DHT22;37579;51.074;17.004;2023-04-09T03:41:56;22.80;47.60
39751;DHT22;37579;51.074;17.004;2023-04-09T03:44:26;22.80;47.60
39751;DHT22;37579;51.074;17.004;2023-04-09T03:47:05;22.80;47.50
39751;DHT22;37579;51.074;17.004;2023-04-09T03:49:34;22.80;47.50
39751;DHT22;37579;51.074;17.004;2023-04-09T03:52:09;22.80;47.60
39751;DHT22;37579;51.074;17.004;2023-04-09T03:54:39;22.80;47.60
39751;DHT22;37579;51.074;17.004;2023-04-09T03:57:11;22.80;47.60
39751;DHT22;37579;51.074;17.004;2023-04-09T03:59:40;22.80;47.60
39751;DHT22;37579;51.074;17.004;2023-04-09T04:02:05;22.80;47.70
39751;DHT22;37579;51.074;17.004;2023-04-09T04:04:34;22.80;47.60
39751;DHT22;37579;51.074;17.004;2023-04-09T04:07:03;22.70;47.60
39751;DHT22;37579;51.074;17.004;2023-04-09T04:09:35;22.80;47.60
39751;DHT22;37579;51.074;17.004;2023-04-09T04:12:06;22.80;47.50
39751;DHT22;37579;51.074;17.004;2023-04-09T04:14:57;22.80;47.60
39751;DHT22;37579;51.074;17.004;2023-04-09T04:17:30;22.80;47.50
39751;DHT22;37579;51.074;17.004;2023-04-09T04:19:56;22.80;47.60
39751;DHT22;37579;51.074;17.004;2023-04-09T04:22:22;22.80;47.60
39751;DHT22;37579;51.074;17.004;2023-04-09T04:24:51;22.80;47.70
39751;DHT22;37579;51.074;17.004;2023-04-09T04:27:20;22.80;47.60
39751;DHT22;37579;51.074;17.004;2023-04-09T04:29:46;22.70;47.50
39751;DHT22;37579;51.074;17.004;2023-04-09T04:32:22;22.70;47.70
39751;DHT22;37579;51.074;17.004;2023-04-09T04:34:50;22.70;47.70
39751;DHT22;37579;51.074;17.004;2023-04-09T04:37:22;22.80;47.70
39751;DHT22;37579;51.074;17.004;2023-04-09T04:39:49;22.90;47.60
39751;DHT22;37579;51.074;17.004;2023-04-09T04:42:17;22.90;47.40
39751;DHT22;37579;51.074;17.004;2023-04-09T04:44:44;22.90;47.30
39751;DHT22;37579;51.074;17.004;2023-04-09T04:47:29;23.00;47.30
39751;DHT22;37579;51.074;17.004;2023-04-09T04:49:57;23.00;47.20
39751;DHT22;37579;51.074;17.004;2023-04-09T04:52:23;23.00;47.20
39751;DHT22;37579;51.074;17.004;2023-04-09T04:54:51;23.10;47.20
39751;DHT22;37579;51.074;17.004;2023-04-09T04:57:21;23.10;47.10
39751;DHT22;37579;51.074;17.004;2023-04-09T04:59:47;23.10;47.10
39751;DHT22;37579;51.074;17.004;2023-04-09T05:02:13;23.10;47.10
39751;DHT22;37579;51.074;17.004;2023-04-09T05:04:49;23.10;47.10
39751;DHT22;37579;51.074;17.004;2023-04-09T05:07:17;23.10;47.00
39751;DHT22;37579;51.074;17.004;2023-04-09T05:09:50;23.10;47.00
39751;DHT22;37579;51.074;17.004;2023-04-09T05:12:16;23.10;46.90
39751;DHT22;37579;51.074;17.004;2023-04-09T05:14:46;23.20;46.90
39751;DHT22;37579;51.074;17.004;2023-04-09T05:17:12;23.20;46.90
39751;DHT22;37579;51.074;17.004;2023-04-09T05:19:42;23.10;46.90
39751;DHT22;37579;51.074;17.004;2023-04-09T05:22:08;23.20;47.00
39751;DHT22;37579;51.074;17.004;2023-04-09T05:24:34;23.10;46.90
39751;DHT22;37579;51.074;17.004;2023-04-09T05:27:00;23.20;46.90
39751;DHT22;37579;51.074;17.004;2023-04-09T05:29:26;23.30;46.90
39751;DHT22;37579;51.074;17.004;2023-04-09T05:31:52;23.30;47.50
39751;DHT22;37579;51.074;17.004;2023-04-09T05:34:34;23.30;46.80
39751;DHT22;37579;51.074;17.004;2023-04-09T05:37:00;23.30;46.70
39751;DHT22;37579;51.074;17.004;2023-04-09T05:39:26;23.30;46.70
39751;DHT22;37579;51.074;17.004;2023-04-09T05:41:52;23.30;46.70
39751;DHT22;37579;51.074;17.004;2023-04-09T05:44:23;23.40;46.70
39751;DHT22;37579;51.074;17.004;2023-04-09T05:46:54;23.30;46.70
39751;DHT22;37579;51.074;17.004;2023-04-09T05:49:24;23.40;46.70
39751;DHT22;37579;51.074;17.004;2023-04-09T05:51:52;23.40;46.70
39751;DHT22;37579;51.074;17.004;2023-04-09T05:54:24;23.30;46.70
39751;DHT22;37579;51.074;17.004;2023-04-09T05:56:50;23.30;46.70
39751;DHT22;37579;51.074;17.004;2023-04-09T05:59:17;23.30;46.80
39751;DHT22;37579;51.074;17.004;2023-04-09T06:01:43;23.30;46.90
39751;DHT22;37579;51.074;17.004;2023-04-09T06:04:09;23.30;46.90
39751;DHT22;37579;51.074;17.004;2023-04-09T06:06:37;23.30;47.50
39751;DHT22;37579;51.074;17.004;2023-04-09T06:09:03;23.30;46.90
39751;DHT22;37579;51.074;17.004;2023-04-09T06:11:30;23.30;46.90
39751;DHT22;37579;51.074;17.004;2023-04-09T06:13:56;23.20;46.90
39751;DHT22;37579;51.074;17.004;2023-04-09T06:16:21;23.30;46.90
39751;DHT22;37579;51.074;17.004;2023-04-09T06:18:47;23.30;46.90
39751;DHT22;37579;51.074;17.004;2023-04-09T06:21:15;23.30;47.00
39751;DHT22;37579;51.074;17.004;2023-04-09T06:23:42;23.30;46.90
39751;DHT22;37579;51.074;17.004;2023-04-09T06:26:08;23.30;46.90
39751;DHT22;37579;51.074;17.004;2023-04-09T06:28:34;23.20;46.90
39751;DHT22;37579;51.074;17.004;2023-04-09T06:31:01;23.20;47.00
39751;DHT22;37579;51.074;17.004;2023-04-09T06:33:26;23.30;46.90
39751;DHT22;37579;51.074;17.004;2023-04-09T06:35:52;23.30;47.00
39751;DHT22;37579;51.074;17.004;2023-04-09T06:38:18;23.30;46.90
39751;DHT22;37579;51.074;17.004;2023-04-09T06:40:45;23.20;46.90
39751;DHT22;37579;51.074;17.004;2023-04-09T06:43:10;23.20;47.00
39751;DHT22;37579;51.074;17.004;2023-04-09T06:45:43;23.20;47.10
39751;DHT22;37579;51.074;17.004;2023-04-09T06:48:10;23.30;47.00
39751;DHT22;37579;51.074;17.004;2023-04-09T06:50:36;23.30;46.90
39751;DHT22;37579;51.074;17.004;2023-04-09T06:53:01;23.30;46.90
39751;DHT22;37579;51.074;17.004;2023-04-09T06:55:27;23.40;46.90
39751;DHT22;37579;51.074;17.004;2023-04-09T06:57:53;23.30;46.90
39751;DHT22;37579;51.074;17.004;2023-04-09T07:00:19;23.40;46.90
39751;DHT22;37579;51.074;17.004;2023-04-09T07:02:45;23.40;46.90
39751;DHT22;37579;51.074;17.004;2023-04-09T07:05:11;23.40;46.90
39751;DHT22;37579;51.074;17.004;2023-04-09T07:07:37;23.40;46.90
39751;DHT22;37579;51.074;17.004;2023-04-09T07:10:03;23.40;47.00
39751;DHT22;37579;51.074;17.004;2023-04-09T07:12:31;23.40;46.90
39751;DHT22;37579;51.074;17.004;2023-04-09T07:14:58;23.40;46.90
39751;DHT22;37579;51.074;17.004;2023-04-09T07:17:24;23.40;46.90
39751;DHT22;37579;51.074;17.004;2023-04-09T07:19:50;23.40;46.90
39751;DHT22;37579;51.074;17.004;2023-04-09T07:22:17;23.40;47.00
39751;DHT22;37579;51.074;17.004;2023-04-09T07:24:42;23.40;47.00
39751;DHT22;37579;51.074;17.004;2023-04-09T07:27:08;23.40;46.90
39751;DHT22;37579;51.074;17.004;2023-04-09T07:29:35;23.40;46.90
39751;DHT22;37579;51.074;17.004;2023-04-09T07:32:01;23.40;46.90
39751;DHT22;37579;51.074;17.004;2023-04-09T07:34:28;23.40;46.80
39751;DHT22;37579;51.074;17.004;2023-04-09T07:36:54;23.40;46.80
39751;DHT22;37579;51.074;17.004;2023-04-09T07:39:20;23.40;46.70
39751;DHT22;37579;51.074;17.004;2023-04-09T07:41:46;23.40;46.70
39751;DHT22;37579;51.074;17.004;2023-04-09T07:44:13;23.40;46.70
39751;DHT22;37579;51.074;17.004;2023-04-09T07:46:39;23.40;46.70
39751;DHT22;37579;51.074;17.004;2023-04-09T07:49:05;23.40;46.70
39751;DHT22;37579;51.074;17.004;2023-04-09T07:51:31;23.40;46.70
39751;DHT22;37579;51.074;17.004;2023-04-09T07:53:57;23.40;46.60
39751;DHT22;37579;51.074;17.004;2023-04-09T07:56:23;23.40;47.40
39751;DHT22;37579;51.074;17.004;2023-04-09T07:58:49;23.30;46.80
39751;DHT22;37579;51.074;17.004;2023-04-09T08:01:15;23.30;46.80
39751;DHT22;37579;51.074;17.004;2023-04-09T08:03:41;23.30;46.90
39751;DHT22;37579;51.074;17.004;2023-04-09T08:06:07;23.30;46.80
39751;DHT22;37579;51.074;17.004;2023-04-09T08:08:33;23.30;46.90
39751;DHT22;37579;51.074;17.004;2023-04-09T08:10:59;23.30;46.90
39751;DHT22;37579;51.074;17.004;2023-04-09T08:13:24;23.20;46.90
39751;DHT22;37579;51.074;17.004;2023-04-09T08:15:50;23.20;47.00
39751;DHT22;37579;51.074;17.004;2023-04-09T08:18:16;23.20;46.90
39751;DHT22;37579;51.074;17.004;2023-04-09T08:20:42;23.20;47.00
39751;DHT22;37579;51.074;17.004;2023-04-09T08:23:10;23.30;47.00
39751;DHT22;37579;51.074;17.004;2023-04-09T08:25:36;23.20;47.00
39751;DHT22;37579;51.074;17.004;2023-04-09T08:28:02;23.20;47.00
39751;DHT22;37579;51.074;17.004;2023-04-09T08:30:27;23.20;47.10
39751;DHT22;37579;51.074;17.004;2023-04-09T08:32:53;23.20;47.00
39751;DHT22;37579;51.074;17.004;2023-04-09T08:35:19;23.20;47.00
39751;DHT22;37579;51.074;17.004;2023-04-09T08:37:45;23.20;47.10
39751;DHT22;37579;51.074;17.004;2023-04-09T08:40:11;23.20;47.10
39751;DHT22;37579;51.074;17.004;2023-04-09T08:42:43;23.20;47.10
39751;DHT22;37579;51.074;17.004;2023-04-09T08:45:12;23.10;47.10
39751;DHT22;37579;51.074;17.004;2023-04-09T08:47:40;23.10;47.10
39751;DHT22;37579;51.074;17.004;2023-04-09T08:50:07;23.10;47.10
39751;DHT22;37579;51.074;17.004;2023-04-09T08:52:33;23.10;47.10
39751;DHT22;37579;51.074;17.004;2023-04-09T08:55:00;23.20;47.10
39751;DHT22;37579;51.074;17.004;2023-04-09T08:57:26;23.10;47.10
39751;DHT22;37579;51.074;17.004;2023-04-09T08:59:52;23.10;47.10
39751;DHT22;37579;51.074;17.004;2023-04-09T09:02:18;23.10;47.20
39751;DHT22;37579;51.074;17.004;2023-04-09T09:04:47;23.10;47.10
39751;DHT22;37579;51.074;17.004;2023-04-09T09:07:14;23.10;47.10
39751;DHT22;37579;51.074;17.004;2023-04-09T09:09:51;23.10;47.20
39751;DHT22;37579;51.074;17.004;2023-04-09T09:14:55;23.10;47.10
39751;DHT22;37579;51.074;17.004;2023-04-09T09:17:21;23.10;47.10
39751;DHT22;37579;51.074;17.004;2023-04-09T09:19:47;23.10;47.20
39751;DHT22;37579;51.074;17.004;2023-04-09T09:22:12;23.10;47.20
39751;DHT22;37579;51.074;17.004;2023-04-09T09:24:47;23.10;47.20
39751;DHT22;37579;51.074;17.004;2023-04-09T09:27:33;23.10;47.20
39751;DHT22;37579;51.074;17.004;2023-04-09T09:30:02;23.10;47.30
39751;DHT22;37579;51.074;17.004;2023-04-09T09:32:29;23.10;47.30
39751;DHT22;37579;51.074;17.004;2023-04-09T09:35:13;23.10;47.30
39751;DHT22;37579;51.074;17.004;2023-04-09T09:37:39;23.10;47.30
39751;DHT22;37579;51.074;17.004;2023-04-09T09:40:05;23.10;47.40
39751;DHT22;37579;51.074;17.004;2023-04-09T09:42:32;23.10;47.30
39751;DHT22;37579;51.074;17.004;2023-04-09T09:44:58;23.10;47.30
39751;DHT22;37579;51.074;17.004;2023-04-09T09:47:24;23.10;47.40
39751;DHT22;37579;51.074;17.004;2023-04-09T09:49:52;23.10;47.40
39751;DHT22;37579;51.074;17.004;2023-04-09T09:52:25;23.10;47.40
39751;DHT22;37579;51.074;17.004;2023-04-09T09:54:55;23.10;47.40
39751;DHT22;37579;51.074;17.004;2023-04-09T09:57:24;23.10;47.40
39751;DHT22;37579;51.074;17.004;2023-04-09T10:00:01;23.00;47.30
39751;DHT22;37579;51.074;17.004;2023-04-09T10:02:51;23.10;47.40
39751;DHT22;37579;51.074;17.004;2023-04-09T10:05:18;23.10;47.30
39751;DHT22;37579;51.074;17.004;2023-04-09T10:07:49;23.10;47.30
39751;DHT22;37579;51.074;17.004;2023-04-09T10:10:16;23.00;47.30
39751;DHT22;37579;51.074;17.004;2023-04-09T10:12:43;23.00;47.40
39751;DHT22;37579;51.074;17.004;2023-04-09T10:15:10;23.10;47.40
39751;DHT22;37579;51.074;17.004;2023-04-09T10:17:36;23.10;47.30
39751;DHT22;37579;51.074;17.004;2023-04-09T10:20:39;23.10;47.40
39751;DHT22;37579;51.074;17.004;2023-04-09T10:23:21;23.00;47.30
39751;DHT22;37579;51.074;17.004;2023-04-09T10:25:48;23.00;47.40
39751;DHT22;37579;51.074;17.004;2023-04-09T10:28:18;23.00;47.40
39751;DHT22;37579;51.074;17.004;2023-04-09T10:30:43;23.10;47.30
39751;DHT22;37579;51.074;17.004;2023-04-09T10:33:11;23.00;47.30
39751;DHT22;37579;51.074;17.004;2023-04-09T10:35:37;23.10;47.30
39751;DHT22;37579;51.074;17.004;2023-04-09T10:38:07;23.10;47.30
39751;DHT22;37579;51.074;17.004;2023-04-09T10:40:33;23.00;47.30
39751;DHT22;37579;51.074;17.004;2023-04-09T10:43:00;23.00;47.30
39751;DHT22;37579;51.074;17.004;2023-04-09T10:45:38;23.00;47.40
39751;DHT22;37579;51.074;17.004;2023-04-09T10:48:05;23.00;47.30
39751;DHT22;37579;51.074;17.004;2023-04-09T10:50:31;23.00;47.40
39751;DHT22;37579;51.074;17.004;2023-04-09T10:52:58;23.00;47.40
39751;DHT22;37579;51.074;17.004;2023-04-09T10:55:40;23.00;47.40
39751;DHT22;37579;51.074;17.004;2023-04-09T10:58:08;23.00;47.40
39751;DHT22;37579;51.074;17.004;2023-04-09T11:00:39;23.00;47.40
39751;DHT22;37579;51.074;17.004;2023-04-09T11:03:09;22.90;47.40
39751;DHT22;37579;51.074;17.004;2023-04-09T11:05:38;22.90;47.40
39751;DHT22;37579;51.074;17.004;2023-04-09T11:08:10;22.90;47.40
39751;DHT22;37579;51.074;17.004;2023-04-09T11:10:39;23.00;47.40
39751;DHT22;37579;51.074;17.004;2023-04-09T11:13:05;23.00;47.20
39751;DHT22;37579;51.074;17.004;2023-04-09T11:15:33;23.10;47.10
39751;DHT22;37579;51.074;17.004;2023-04-09T11:18:00;23.10;47.10
39751;DHT22;37579;51.074;17.004;2023-04-09T11:20:27;23.10;47.10
39751;DHT22;37579;51.074;17.004;2023-04-09T11:22:54;23.10;47.20
39751;DHT22;37579;51.074;17.004;2023-04-09T11:25:25;23.10;47.30
39751;DHT22;37579;51.074;17.004;2023-04-09T11:27:52;23.10;47.30
39751;DHT22;37579;51.074;17.004;2023-04-09T11:30:18;23.10;47.30
39751;DHT22;37579;51.074;17.004;2023-04-09T11:32:44;23.10;47.20
39751;DHT22;37579;51.074;17.004;2023-04-09T11:35:19;23.10;47.30
39751;DHT22;37579;51.074;17.004;2023-04-09T11:37:46;23.10;47.20
39751;DHT22;37579;51.074;17.004;2023-04-09T11:40:16;23.10;47.30
39751;DHT22;37579;51.074;17.004;2023-04-09T11:42:43;23.20;47.30
39751;DHT22;37579;51.074;17.004;2023-04-09T11:45:10;23.10;47.20
39751;DHT22;37579;51.074;17.004;2023-04-09T11:47:40;23.20;47.30
39751;DHT22;37579;51.074;17.004;2023-04-09T11:50:08;23.20;47.30
39751;DHT22;37579;51.074;17.004;2023-04-09T11:52:35;23.20;47.30
39751;DHT22;37579;51.074;17.004;2023-04-09T11:55:02;23.20;47.30
39751;DHT22;37579;51.074;17.004;2023-04-09T11:57:58;23.10;47.10
39751;DHT22;37579;51.074;17.004;2023-04-09T12:00:26;23.20;47.10
39751;DHT22;37579;51.074;17.004;2023-04-09T12:03:02;23.20;47.20
39751;DHT22;37579;51.074;17.004;2023-04-09T12:05:30;23.20;47.10
39751;DHT22;37579;51.074;17.004;2023-04-09T12:07:57;23.20;47.10
39751;DHT22;37579;51.074;17.004;2023-04-09T12:10:30;23.20;47.20
39751;DHT22;37579;51.074;17.004;2023-04-09T12:13:01;23.20;47.20
39751;DHT22;37579;51.074;17.004;2023-04-09T12:15:31;23.20;47.10
39751;DHT22;37579;51.074;17.004;2023-04-09T12:17:57;23.20;47.10
39751;DHT22;37579;51.074;17.004;2023-04-09T12:22:54;23.20;47.20
39751;DHT22;37579;51.074;17.004;2023-04-09T12:25:20;23.20;47.10
39751;DHT22;37579;51.074;17.004;2023-04-09T12:27:45;23.10;47.10
39751;DHT22;37579;51.074;17.004;2023-04-09T12:30:12;23.10;47.10
39751;DHT22;37579;51.074;17.004;2023-04-09T12:32:37;23.10;47.10
39751;DHT22;37579;51.074;17.004;2023-04-09T12:35:03;23.10;47.10
39751;DHT22;37579;51.074;17.004;2023-04-09T12:37:30;23.10;47.10
39751;DHT22;37579;51.074;17.004;2023-04-09T12:39:56;23.10;47.10
39751;DHT22;37579;51.074;17.004;2023-04-09T12:42:22;23.10;47.20
39751;DHT22;37579;51.074;17.004;2023-04-09T12:44:47;23.10;47.10
39751;DHT22;37579;51.074;17.004;2023-04-09T12:47:13;23.10;47.20
39751;DHT22;37579;51.074;17.004;2023-04-09T12:49:39;23.10;47.10
39751;DHT22;37579;51.074;17.004;2023-04-09T12:52:05;23.10;47.20
39751;DHT22;37579;51.074;17.004;2023-04-09T12:54:31;23.10;47.20
39751;DHT22;37579;51.074;17.004;2023-04-09T12:56:56;23.10;47.20
39751;DHT22;37579;51.074;17.004;2023-04-09T12:59:22;23.10;47.20
39751;DHT22;37579;51.074;17.004;2023-04-09T13:01:48;23.10;47.20
39751;DHT22;37579;51.074;17.004;2023-04-09T13:04:14;23.10;47.20
39751;DHT22;37579;51.074;17.004;2023-04-09T13:06:40;23.10;47.20
39751;DHT22;37579;51.074;17.004;2023-04-09T13:09:05;23.10;47.10
39751;DHT22;37579;51.074;17.004;2023-04-09T13:11:31;23.10;47.10
39751;DHT22;37579;51.074;17.004;2023-04-09T13:13:57;23.10;47.10
39751;DHT22;37579;51.074;17.004;2023-04-09T13:16:23;23.10;47.20
39751;DHT22;37579;51.074;17.004;2023-04-09T13:18:48;23.10;47.20
39751;DHT22;37579;51.074;17.004;2023-04-09T13:21:16;23.10;47.20
39751;DHT22;37579;51.074;17.004;2023-04-09T13:23:43;23.10;47.30
39751;DHT22;37579;51.074;17.004;2023-04-09T13:26:09;23.10;47.90
39751;DHT22;37579;51.074;17.004;2023-04-09T13:28:35;23.10;47.30
39751;DHT22;37579;51.074;17.004;2023-04-09T13:31:02;23.10;47.20
39751;DHT22;37579;51.074;17.004;2023-04-09T13:33:27;23.10;47.40
39751;DHT22;37579;51.074;17.004;2023-04-09T13:35:53;23.10;47.30
39751;DHT22;37579;51.074;17.004;2023-04-09T13:38:19;23.00;47.20
39751;DHT22;37579;51.074;17.004;2023-04-09T13:40:45;23.00;47.30
39751;DHT22;37579;51.074;17.004;2023-04-09T13:43:11;23.00;47.20
39751;DHT22;37579;51.074;17.004;2023-04-09T13:45:37;23.00;47.30
39751;DHT22;37579;51.074;17.004;2023-04-09T13:48:02;23.00;47.30
39751;DHT22;37579;51.074;17.004;2023-04-09T13:50:28;23.00;47.40
39751;DHT22;37579;51.074;17.004;2023-04-09T13:52:54;23.00;47.40
39751;DHT22;37579;51.074;17.004;2023-04-09T13:55:20;23.00;47.40
39751;DHT22;37579;51.074;17.004;2023-04-09T13:57:46;23.00;47.40
39751;DHT22;37579;51.074;17.004;2023-04-09T14:00:12;23.00;47.40
39751;DHT22;37579;51.074;17.004;2023-04-09T14:02:38;23.00;47.40
39751;DHT22;37579;51.074;17.004;2023-04-09T14:05:04;23.00;47.40
39751;DHT22;37579;51.074;17.004;2023-04-09T14:07:30;23.00;47.40
39751;DHT22;37579;51.074;17.004;2023-04-09T14:09:56;23.00;47.40
39751;DHT22;37579;51.074;17.004;2023-04-09T14:12:22;23.00;47.40
39751;DHT22;37579;51.074;17.004;2023-04-09T14:14:48;23.00;47.40
39751;DHT22;37579;51.074;17.004;2023-04-09T14:17:14;23.00;47.40
39751;DHT22;37579;51.074;17.004;2023-04-09T14:19:40;23.00;47.40
39751;DHT22;37579;51.074;17.004;2023-04-09T14:22:06;23.00;47.40
39751;DHT22;37579;51.074;17.004;2023-04-09T14:24:33;23.00;47.50
39751;DHT22;37579;51.074;17.004;2023-04-09T14:27:05;23.00;47.40
39751;DHT22;37579;51.074;17.004;2023-04-09T14:29:31;23.00;47.40
39751;DHT22;37579;51.074;17.004;2023-04-09T14:31:57;23.00;47.30
39751;DHT22;37579;51.074;17.004;2023-04-09T14:34:22;23.00;47.40
39751;DHT22;37579;51.074;17.004;2023-04-09T14:36:48;22.90;47.40
39751;DHT22;37579;51.074;17.004;2023-04-09T14:39:14;23.00;47.40
39751;DHT22;37579;51.074;17.004;2023-04-09T14:41:40;23.00;47.40
39751;DHT22;37579;51.074;17.004;2023-04-09T14:44:06;23.00;47.40
39751;DHT22;37579;51.074;17.004;2023-04-09T14:46:32;23.00;47.20
39751;DHT22;37579;51.074;17.004;2023-04-09T14:48:57;23.00;47.20
39751;DHT22;37579;51.074;17.004;2023-04-09T14:51:23;23.10;47.30
39751;DHT22;37579;51.074;17.004;2023-04-09T14:53:49;23.00;47.20
39751;DHT22;37579;51.074;17.004;2023-04-09T14:56:15;23.10;47.30
39751;DHT22;37579;51.074;17.004;2023-04-09T14:58:41;23.10;47.20
39751;DHT22;37579;51.074;17.004;2023-04-09T15:01:07;23.10;47.20
39751;DHT22;37579;51.074;17.004;2023-04-09T15:03:32;23.10;47.10
39751;DHT22;37579;51.074;17.004;2023-04-09T15:05:58;23.20;47.20
39751;DHT22;37579;51.074;17.004;2023-04-09T15:08:24;23.20;47.10
39751;DHT22;37579;51.074;17.004;2023-04-09T15:10:50;23.10;47.10
39751;DHT22;37579;51.074;17.004;2023-04-09T15:13:16;23.20;47.20
39751;DHT22;37579;51.074;17.004;2023-04-09T15:15:41;23.20;47.10
39751;DHT22;37579;51.074;17.004;2023-04-09T15:18:09;23.20;47.10
39751;DHT22;37579;51.074;17.004;2023-04-09T15:20:36;23.20;47.10
39751;DHT22;37579;51.074;17.004;2023-04-09T15:23:02;23.20;47.10
39751;DHT22;37579;51.074;17.004;2023-04-09T15:25:28;23.30;47.20
39751;DHT22;37579;51.074;17.004;2023-04-09T15:27:54;23.20;47.10
39751;DHT22;37579;51.074;17.004;2023-04-09T15:30:19;23.30;47.10
39751;DHT22;37579;51.074;17.004;2023-04-09T15:32:45;23.30;47.00
39751;DHT22;37579;51.074;17.004;2023-04-09T15:35:11;23.30;47.00